createdAt,value
2022-11-09T00:00:06.213Z,19.90
2022-11-09T00:02:33.109Z,22.05
2022-11-09T00:04:59.980Z,22.52
2022-11-09T00:07:26.895Z,21.20
2022-11-09T00:09:53.783Z,21.75
2022-11-09T00:12:21.004Z,22.23
2022-11-09T00:14:47.870Z,21.33
2022-11-09T00:17:15.482Z,20.48
2022-11-09T00:19:42.337Z,21.42
2022-11-09T00:22:09.177Z,19.25
2022-11-09T00:24:35.993Z,21.50
2022-11-09T00:27:03.081Z,20.83
2022-11-09T00:29:29.965Z,20.48
2022-11-09T00:31:56.789Z,20.50
2022-11-09T00:34:23.662Z,15.65
2022-11-09T00:36:50.579Z,22.52
2022-11-09T00:39:17.493Z,22.42
2022-11-09T00:41:44.631Z,20.55
2022-11-09T00:44:11.455Z,21.52
2022-11-09T00:46:38.515Z,18.33
2022-11-09T00:49:05.611Z,21.52
2022-11-09T00:51:32.469Z,22.88
2022-11-09T00:53:59.286Z,16.48
2022-11-09T00:56:26.187Z,20.95
2022-11-09T00:58:56.357Z,20.70
2022-11-09T01:01:23.448Z,21.40
2022-11-09T01:03:50.701Z,21.67
2022-11-09T01:06:22.941Z,21.20
2022-11-09T01:08:50.473Z,21.47
2022-11-09T01:11:18.997Z,21.42
2022-11-09T01:13:46.253Z,22.30
2022-11-09T01:16:16.944Z,21.23
2022-11-09T01:18:43.982Z,20.67
2022-11-09T01:21:14.354Z,21.10
2022-11-09T01:23:42.987Z,20.90
2022-11-09T01:26:12.751Z,22.90
2022-11-09T01:28:40.360Z,20.63
2022-11-09T01:31:13.306Z,23.17
2022-11-09T01:33:40.758Z,16.75
2022-11-09T01:36:20.497Z,21.38
2022-11-09T01:38:48.187Z,21.60
2022-11-09T01:41:27.308Z,20.05
2022-11-09T01:44:27.723Z,21.85
2022-11-09T01:47:05.625Z,22.27
2022-11-09T01:49:51.307Z,21.52
2022-11-09T01:52:27.589Z,21.10
2022-11-09T01:55:05.080Z,22.50
2022-11-09T01:57:42.847Z,22.33
2022-11-09T02:00:13.386Z,21.02
2022-11-09T02:02:55.679Z,21.35
2022-11-09T02:05:26.877Z,22.08
2022-11-09T02:07:55.105Z,22.73
2022-11-09T02:10:32.847Z,19.77
2022-11-09T02:13:00.478Z,19.52
2022-11-09T02:15:28.953Z,22.58
2022-11-09T02:17:57.299Z,21.67
2022-11-09T02:20:25.446Z,20.67
2022-11-09T02:22:52.455Z,20.60
2022-11-09T02:25:19.544Z,22.05
2022-11-09T02:27:46.856Z,20.95
2022-11-09T02:30:15.085Z,19.75
2022-11-09T02:32:41.993Z,21.83
2022-11-09T02:35:10.615Z,22.52
2022-11-09T02:37:48.935Z,22.17
2022-11-09T02:40:24.629Z,20.63
2022-11-09T02:42:51.675Z,21.80
2022-11-09T02:45:18.553Z,22.42
2022-11-09T02:47:45.399Z,19.55
2022-11-09T02:50:12.264Z,22.67
2022-11-09T02:52:39.099Z,20.58
2022-11-09T02:55:06.413Z,22.17
2022-11-09T02:57:33.670Z,18.73
2022-11-09T03:00:00.536Z,20.85
2022-11-09T03:02:27.566Z,20.45
2022-11-09T03:04:54.421Z,22.95
2022-11-09T03:07:21.365Z,23.30
2022-11-09T03:09:48.255Z,21.30
2022-11-09T03:12:30.402Z,20.25
2022-11-09T03:15:03.451Z,21.02
2022-11-09T03:17:31.800Z,21.77
2022-11-09T03:19:58.687Z,19.35
2022-11-09T03:22:25.593Z,21.45
2022-11-09T03:24:52.459Z,21.27
2022-11-09T03:27:19.332Z,21.48
2022-11-09T03:29:46.154Z,20.15
2022-11-09T03:32:13.033Z,18.65
2022-11-09T03:34:39.913Z,21.70
2022-11-09T03:37:06.788Z,21.50
2022-11-09T03:39:33.673Z,24.25
2022-11-09T03:42:00.567Z,21.70
2022-11-09T03:44:27.492Z,20.67
2022-11-09T03:46:54.582Z,21.67
2022-11-09T03:49:23.832Z,22.33
2022-11-09T03:51:51.575Z,21.02
2022-11-09T03:54:18.516Z,19.40
2022-11-09T03:56:45.346Z,20.17
2022-11-09T03:59:12.164Z,21.35
2022-11-09T04:01:39.111Z,21.17
2022-11-09T04:04:06.130Z,21.38
2022-11-09T04:06:33.130Z,20.90
2022-11-09T04:09:00.029Z,21.27
2022-11-09T04:11:27.275Z,21.08
2022-11-09T04:13:54.121Z,21.35
2022-11-09T04:16:21.117Z,22.15
2022-11-09T04:18:48.201Z,19.25
2022-11-09T04:21:15.851Z,19.30
2022-11-09T04:23:45.307Z,18.52
2022-11-09T04:26:12.165Z,19.38
2022-11-09T04:28:38.997Z,20.90
2022-11-09T04:31:06.034Z,20.02
2022-11-09T04:33:32.883Z,20.80
2022-11-09T04:36:04.359Z,19.65
2022-11-09T04:38:31.361Z,21.05
2022-11-09T04:41:01.331Z,20.60
2022-11-09T04:43:28.873Z,19.85
2022-11-09T04:45:55.929Z,21.02
2022-11-09T04:48:22.773Z,20.17
2022-11-09T04:50:49.609Z,18.92
2022-11-09T04:53:16.656Z,19.42
2022-11-09T04:55:44.211Z,17.52
2022-11-09T04:58:11.452Z,19.58
2022-11-09T05:00:39.067Z,20.23
2022-11-09T05:03:07.039Z,18.95
2022-11-09T05:05:35.197Z,18.27
2022-11-09T05:08:03.199Z,18.98
2022-11-09T05:10:30.506Z,20.75
2022-11-09T05:13:01.816Z,18.05
2022-11-09T05:15:28.973Z,18.02
2022-11-09T05:17:56.126Z,19.50
2022-11-09T05:20:23.488Z,17.85
2022-11-09T05:23:08.704Z,21.05
2022-11-09T05:25:35.768Z,18.65
2022-11-09T05:28:02.911Z,19.58
2022-11-09T05:30:30.705Z,15.93
2022-11-09T05:32:57.554Z,18.35
2022-11-09T05:35:24.419Z,18.25
2022-11-09T05:37:51.750Z,20.05
2022-11-09T05:40:19.655Z,19.05
2022-11-09T05:42:47.103Z,19.15
2022-11-09T05:48:04.538Z,20.00
2022-11-09T05:50:31.574Z,17.20
2022-11-09T05:53:02.102Z,18.95
2022-11-09T05:55:28.936Z,18.85
2022-11-09T05:57:56.119Z,17.45
2022-11-09T06:00:23.518Z,15.95
2022-11-09T06:02:50.663Z,16.77
2022-11-09T06:05:20.321Z,17.42
2022-11-09T06:07:47.164Z,17.25
2022-11-09T06:10:14.084Z,15.95
2022-11-09T06:12:41.013Z,17.00
2022-11-09T06:15:08.382Z,17.25
2022-11-09T06:17:35.268Z,16.27
2022-11-09T06:20:02.462Z,16.33
2022-11-09T06:22:29.277Z,14.60
2022-11-09T06:24:56.180Z,15.80
2022-11-09T06:27:23.075Z,15.90
2022-11-09T06:29:49.893Z,15.23
2022-11-09T06:32:16.770Z,16.08
2022-11-09T06:34:44.422Z,15.23
2022-11-09T06:37:11.337Z,16.25
2022-11-09T06:39:38.174Z,13.98
2022-11-09T06:42:05.354Z,14.73
2022-11-09T06:44:32.262Z,15.55
2022-11-09T06:46:59.076Z,14.98
2022-11-09T06:49:25.942Z,13.35
2022-11-09T06:51:52.768Z,13.80
2022-11-09T06:54:19.609Z,13.63
2022-11-09T06:56:46.491Z,10.52
2022-11-09T06:59:13.339Z,13.45
2022-11-09T07:01:40.207Z,11.45
2022-11-09T07:04:07.184Z,11.98
2022-11-09T07:06:34.127Z,12.68
2022-11-09T07:09:01.045Z,13.32
2022-11-09T07:11:27.924Z,11.98
2022-11-09T07:13:57.460Z,11.43
2022-11-09T07:16:24.847Z,12.63
2022-11-09T07:18:51.740Z,11.13
2022-11-09T07:21:18.604Z,11.30
2022-11-09T07:23:47.944Z,12.25
2022-11-09T07:26:15.854Z,11.48
2022-11-09T07:28:43.377Z,11.60
2022-11-09T07:31:10.606Z,12.55
2022-11-09T07:33:38.138Z,11.73
2022-11-09T07:36:06.319Z,11.00
2022-11-09T07:38:33.238Z,11.93
2022-11-09T07:41:00.902Z,11.93
2022-11-09T07:43:28.630Z,10.77
2022-11-09T07:45:55.485Z,11.10
2022-11-09T07:48:23.080Z,12.38
2022-11-09T07:50:50.204Z,11.85
2022-11-09T07:53:18.029Z,13.30
2022-11-09T07:55:45.053Z,11.75
2022-11-09T07:58:14.557Z,13.45
2022-11-09T08:00:42.641Z,11.90
2022-11-09T08:03:10.229Z,12.25
2022-11-09T08:05:37.393Z,12.77
2022-11-09T08:08:07.407Z,11.10
2022-11-09T08:10:36.621Z,11.50
2022-11-09T08:13:06.697Z,11.63
2022-11-09T08:15:35.062Z,12.20
2022-11-09T08:18:05.459Z,11.07
2022-11-09T08:20:32.626Z,12.50
2022-11-09T08:23:03.641Z,11.32
2022-11-09T08:25:35.467Z,10.23
2022-11-09T08:28:03.611Z,11.75
2022-11-09T08:30:31.230Z,11.65
2022-11-09T08:33:00.220Z,11.73
2022-11-09T08:35:27.923Z,9.88
2022-11-09T08:37:55.079Z,10.27
2022-11-09T08:40:26.392Z,10.05
2022-11-09T08:42:53.818Z,10.73
2022-11-09T08:45:20.969Z,10.38
2022-11-09T08:47:48.430Z,9.43
2022-11-09T08:50:16.089Z,9.70
2022-11-09T08:52:42.994Z,10.52
2022-11-09T08:55:10.474Z,9.05
2022-11-09T08:57:37.596Z,9.32
2022-11-09T09:00:05.354Z,9.05
2022-11-09T09:02:32.409Z,9.48
2022-11-09T09:04:59.269Z,10.70
2022-11-09T09:07:26.418Z,8.55
2022-11-09T09:09:53.383Z,9.00
2022-11-09T09:12:20.313Z,9.68
2022-11-09T09:14:47.398Z,7.20
2022-11-09T09:17:14.513Z,8.77
2022-11-09T09:19:44.799Z,9.20
2022-11-09T09:22:14.235Z,8.10
2022-11-09T09:24:41.119Z,9.05
2022-11-09T09:27:08.010Z,8.82
2022-11-09T09:29:34.822Z,8.77
2022-11-09T09:32:01.734Z,9.25
2022-11-09T09:34:28.645Z,7.88
2022-11-09T09:36:55.671Z,8.50
2022-11-09T09:39:22.771Z,9.00
2022-11-09T09:41:56.517Z,9.65
2022-11-09T09:44:56.968Z,8.75
2022-11-09T09:47:45.400Z,7.90
2022-11-09T09:50:19.341Z,8.30
2022-11-09T09:53:23.772Z,7.97
2022-11-09T09:55:57.750Z,8.18
2022-11-09T09:58:33.140Z,8.63
2022-11-09T10:01:12.119Z,7.93
2022-11-09T10:03:38.998Z,8.18
2022-11-09T10:06:37.781Z,6.40
2022-11-09T10:09:29.334Z,7.10
2022-11-09T10:12:08.230Z,7.20
2022-11-09T10:15:04.595Z,7.40
2022-11-09T10:18:08.214Z,7.00
2022-11-09T10:21:02.020Z,6.43
2022-11-09T10:23:37.740Z,7.93
2022-11-09T10:26:15.586Z,7.40
2022-11-09T10:29:13.989Z,6.78
2022-11-09T10:31:34.322Z,6.85
2022-11-09T10:34:12.762Z,6.82
2022-11-09T10:37:04.461Z,6.85
2022-11-09T10:39:46.683Z,7.07
2022-11-09T10:42:13.555Z,7.00
2022-11-09T10:44:40.381Z,7.40
2022-11-09T10:47:14.527Z,7.97
2022-11-09T10:49:41.446Z,7.57
2022-11-09T10:52:47.081Z,7.50
2022-11-09T10:55:27.591Z,7.22
2022-11-09T10:58:21.388Z,7.57
2022-11-09T11:01:00.193Z,6.90
2022-11-09T11:03:28.364Z,7.35
2022-11-09T11:06:04.543Z,7.28
2022-11-09T11:08:36.759Z,7.68
2022-11-09T11:11:31.981Z,7.33
2022-11-09T11:14:32.241Z,7.20
2022-11-09T11:16:59.629Z,7.45
2022-11-09T11:19:41.455Z,7.93
2022-11-09T11:22:22.838Z,7.78
2022-11-09T11:25:18.546Z,6.68
2022-11-09T11:28:02.951Z,7.85
2022-11-09T11:30:36.649Z,7.00
2022-11-09T11:33:14.880Z,7.30
2022-11-09T11:36:08.756Z,7.32
2022-11-09T11:38:46.989Z,7.72
2022-11-09T11:41:22.501Z,8.13
2022-11-09T11:43:57.165Z,8.60
2022-11-09T11:46:40.251Z,8.00
2022-11-09T11:49:24.649Z,7.65
2022-11-09T11:52:06.091Z,8.05
2022-11-09T11:55:00.195Z,7.40
2022-11-09T11:58:04.222Z,7.35
2022-11-09T12:00:41.077Z,7.75
2022-11-09T12:03:50.334Z,7.50
2022-11-09T12:06:48.113Z,7.55
2022-11-09T12:09:25.100Z,7.95
2022-11-09T12:12:22.696Z,7.93
2022-11-09T12:14:55.746Z,7.50
2022-11-09T12:17:41.379Z,7.63
2022-11-09T12:20:23.341Z,7.22
2022-11-09T12:23:08.507Z,8.05
2022-11-09T12:25:53.551Z,7.15
2022-11-09T12:28:35.057Z,8.45
2022-11-09T12:31:12.428Z,7.82
2022-11-09T12:33:50.667Z,6.93
2022-11-09T12:36:23.259Z,7.20
2022-11-09T12:38:53.234Z,7.85
2022-11-09T12:41:24.667Z,7.28
2022-11-09T12:44:02.674Z,8.95
2022-11-09T12:46:57.492Z,7.60
2022-11-09T12:49:42.413Z,8.73
2022-11-09T12:52:14.376Z,7.85
2022-11-09T12:54:47.140Z,10.00
2022-11-09T12:57:26.630Z,8.32
2022-11-09T12:59:55.573Z,7.82
2022-11-09T13:02:29.082Z,8.48
2022-11-09T13:05:01.389Z,8.50
2022-11-09T13:07:50.260Z,8.02
2022-11-09T13:10:32.453Z,9.45
2022-11-09T13:13:20.857Z,7.00
2022-11-09T13:16:06.937Z,8.27
2022-11-09T13:18:45.142Z,7.82
2022-11-09T13:21:21.609Z,7.60
2022-11-09T13:24:02.707Z,8.13
2022-11-09T13:26:33.667Z,8.00
2022-11-09T13:29:09.881Z,8.68
2022-11-09T13:32:05.510Z,8.25
2022-11-09T13:34:50.538Z,8.32
2022-11-09T13:37:57.415Z,8.35
2022-11-09T13:40:33.089Z,8.50
2022-11-09T13:43:08.587Z,8.48
2022-11-09T13:45:44.450Z,8.55
2022-11-09T13:48:34.710Z,9.77
2022-11-09T13:51:11.405Z,9.68
2022-11-09T13:53:38.278Z,9.25
2022-11-09T13:56:40.098Z,10.05
2022-11-09T13:59:35.195Z,9.63
2022-11-09T14:02:03.342Z,10.18
2022-11-09T14:04:36.567Z,10.90
2022-11-09T14:09:51.517Z,10.10
2022-11-09T14:12:56.104Z,10.32
2022-11-09T14:15:47.720Z,10.00
2022-11-09T14:18:50.209Z,10.90
2022-11-09T14:21:41.279Z,10.55
2022-11-09T14:24:29.678Z,10.25
2022-11-09T14:27:04.058Z,11.82
2022-11-09T14:29:33.286Z,14.10
2022-11-09T14:32:28.621Z,13.77
2022-11-09T14:35:35.189Z,15.88
2022-11-09T14:38:15.462Z,18.35
2022-11-09T14:40:46.993Z,19.70
2022-11-09T14:43:29.408Z,22.83
2022-11-09T14:45:59.938Z,22.05
2022-11-09T14:48:28.022Z,20.88
2022-11-09T14:50:57.514Z,17.17
2022-11-09T14:53:31.867Z,13.73
2022-11-09T14:56:01.823Z,14.73
2022-11-09T14:58:31.875Z,13.75
2022-11-09T15:01:09.258Z,15.55
2022-11-09T15:03:36.680Z,15.60
2022-11-09T15:06:10.986Z,15.45
2022-11-09T15:08:47.303Z,16.63
2022-11-09T15:11:14.169Z,18.13
2022-11-09T15:13:41.822Z,18.88
2022-11-09T15:16:19.368Z,19.33
2022-11-09T15:18:46.877Z,20.25
2022-11-09T15:21:32.334Z,20.08
2022-11-09T15:24:08.288Z,19.80
2022-11-09T15:26:45.794Z,19.60
2022-11-09T15:29:27.977Z,18.17
2022-11-09T15:32:06.527Z,15.32
2022-11-09T15:34:40.136Z,17.63
2022-11-09T15:37:38.661Z,16.95
2022-11-09T15:40:13.789Z,16.90
2022-11-09T15:42:45.112Z,16.30
2022-11-09T15:45:18.759Z,12.18
2022-11-09T15:47:54.609Z,13.25
2022-11-09T15:50:24.695Z,14.38
2022-11-09T15:52:52.024Z,13.77
2022-11-09T15:55:23.576Z,16.48
2022-11-09T15:57:52.577Z,13.73
2022-11-09T16:00:21.495Z,11.80
2022-11-09T16:02:49.275Z,14.50
2022-11-09T16:05:16.515Z,11.48
2022-11-09T16:07:51.455Z,14.40
2022-11-09T16:10:20.425Z,14.63
2022-11-09T16:12:47.562Z,15.80
2022-11-09T16:15:14.802Z,15.75
2022-11-09T16:17:41.669Z,16.30
2022-11-09T16:20:09.115Z,15.20
2022-11-09T16:22:36.348Z,16.25
2022-11-09T16:25:03.565Z,15.32
2022-11-09T16:30:17.839Z,15.48
2022-11-09T16:32:44.771Z,16.00
2022-11-09T16:35:28.347Z,15.20
2022-11-09T16:37:58.113Z,13.40
2022-11-09T16:40:26.970Z,17.08
2022-11-09T16:42:53.844Z,17.48
2022-11-09T16:45:21.699Z,16.67
2022-11-09T16:47:53.955Z,19.60
2022-11-09T16:50:20.839Z,18.87
2022-11-09T16:52:47.700Z,19.73
2022-11-09T16:55:14.623Z,17.75
2022-11-09T16:57:41.485Z,18.17
2022-11-09T17:00:09.119Z,18.60
2022-11-09T17:02:36.062Z,18.55
2022-11-09T17:05:02.937Z,18.08
2022-11-09T17:07:30.037Z,17.15
2022-11-09T17:09:57.072Z,18.02
2022-11-09T17:12:23.894Z,17.70
2022-11-09T17:14:51.586Z,17.90
2022-11-09T17:17:22.667Z,17.77
2022-11-09T17:19:49.945Z,18.33
2022-11-09T17:22:17.662Z,15.07
2022-11-09T17:24:44.629Z,19.98
2022-11-09T17:27:12.260Z,17.23
2022-11-09T17:29:40.008Z,18.80
2022-11-09T17:32:09.518Z,20.45
2022-11-09T17:34:36.572Z,18.98
2022-11-09T17:37:05.630Z,21.73
2022-11-09T17:39:33.138Z,19.08
2022-11-09T17:42:00.056Z,21.27
2022-11-09T17:44:27.125Z,20.58
2022-11-09T17:46:54.044Z,21.23
2022-11-09T17:49:20.893Z,21.25
2022-11-09T17:51:47.876Z,21.02
2022-11-09T17:54:15.081Z,21.10
2022-11-09T17:56:42.591Z,19.70
2022-11-09T17:59:09.976Z,20.40
2022-11-09T18:01:41.439Z,21.45
2022-11-09T18:04:11.028Z,19.88
2022-11-09T18:06:38.875Z,19.27
2022-11-09T18:11:53.700Z,17.35
2022-11-09T18:14:20.647Z,20.02
2022-11-09T18:16:47.526Z,20.58
2022-11-09T18:19:14.795Z,19.45
2022-11-09T18:21:41.758Z,17.88
2022-11-09T18:24:08.906Z,22.77
2022-11-09T18:26:35.791Z,20.65
2022-11-09T18:29:02.664Z,20.45
2022-11-09T18:31:29.521Z,21.13
2022-11-09T18:33:56.435Z,21.65
2022-11-09T18:36:23.590Z,20.33
2022-11-09T18:38:52.114Z,20.33
2022-11-09T18:41:22.054Z,21.80
2022-11-09T18:43:50.469Z,20.23
2022-11-09T18:46:19.698Z,21.02
2022-11-09T18:48:54.288Z,20.10
2022-11-09T18:51:21.527Z,20.52
2022-11-09T18:53:49.504Z,21.10
2022-11-09T18:56:22.183Z,20.88
2022-11-09T18:58:52.603Z,21.90
2022-11-09T19:01:20.374Z,19.90
2022-11-09T19:03:47.382Z,21.80
2022-11-09T19:06:17.476Z,21.27
2022-11-09T19:09:03.388Z,20.45
2022-11-09T19:11:31.240Z,20.38
2022-11-09T19:13:58.838Z,20.48
2022-11-09T19:16:26.949Z,20.40
2022-11-09T19:18:54.201Z,20.40
2022-11-09T19:21:33.386Z,21.33
2022-11-09T19:24:00.372Z,21.35
2022-11-09T19:26:27.249Z,20.92
2022-11-09T19:28:54.182Z,18.77
2022-11-09T19:31:23.382Z,18.75
2022-11-09T19:33:51.068Z,21.38
2022-11-09T19:36:34.866Z,21.90
2022-11-09T19:39:01.763Z,22.15
2022-11-09T19:41:29.429Z,21.00
2022-11-09T19:44:00.554Z,24.70
2022-11-09T19:46:33.432Z,21.60
2022-11-09T19:49:00.992Z,20.17
2022-11-09T19:51:31.847Z,23.90
2022-11-09T19:54:00.663Z,21.83
2022-11-09T19:56:30.924Z,19.58
2022-11-09T19:59:00.256Z,17.98
2022-11-09T20:01:28.204Z,19.83
2022-11-09T20:03:57.081Z,22.55
2022-11-09T20:06:25.087Z,21.48
2022-11-09T20:08:52.459Z,21.20
2022-11-09T20:11:41.646Z,21.55
2022-11-09T20:14:09.817Z,21.60
2022-11-09T20:16:38.159Z,19.75
2022-11-09T20:19:06.784Z,22.33
2022-11-09T20:21:33.676Z,19.70
2022-11-09T20:24:00.587Z,21.15
2022-11-09T20:26:27.759Z,20.77
2022-11-09T20:28:55.813Z,21.00
2022-11-09T20:31:23.460Z,22.38
2022-11-09T20:33:51.052Z,20.52
2022-11-09T20:36:21.095Z,22.25
2022-11-09T20:38:48.692Z,23.05
2022-11-09T20:41:15.614Z,22.30
2022-11-09T20:43:43.044Z,20.45
2022-11-09T20:46:16.096Z,21.75
2022-11-09T20:48:59.377Z,21.10
2022-11-09T20:51:26.694Z,20.90
2022-11-09T20:53:53.660Z,20.10
2022-11-09T20:56:21.279Z,20.77
2022-11-09T20:58:48.328Z,19.25
2022-11-09T21:01:27.315Z,21.85
2022-11-09T21:03:54.645Z,17.83
2022-11-09T21:06:22.036Z,21.00
2022-11-09T21:08:53.989Z,21.60
2022-11-09T21:11:23.715Z,23.75
2022-11-09T21:13:51.976Z,21.02
2022-11-09T21:16:20.187Z,20.75
2022-11-09T21:18:47.404Z,23.27
2022-11-09T21:21:17.149Z,21.50
2022-11-09T21:24:03.247Z,21.13
2022-11-09T21:26:48.852Z,21.05
2022-11-09T21:29:40.342Z,22.00
2022-11-09T21:32:08.218Z,24.85
2022-11-09T21:34:37.009Z,23.95
2022-11-09T21:37:05.108Z,22.35
2022-11-09T21:39:32.560Z,23.05
2022-11-09T21:42:00.165Z,23.20
2022-11-09T21:44:32.182Z,22.45
2022-11-09T21:46:59.611Z,23.67
2022-11-09T21:49:26.645Z,22.50
2022-11-09T21:51:54.287Z,23.25
2022-11-09T21:54:22.017Z,23.45
2022-11-09T21:56:50.069Z,20.20
2022-11-09T21:59:17.328Z,23.80
2022-11-09T22:01:44.472Z,23.45
2022-11-09T22:04:12.087Z,24.17
2022-11-09T22:06:42.056Z,20.50
2022-11-09T22:09:15.658Z,23.50
2022-11-09T22:12:09.223Z,22.13
2022-11-09T22:14:54.619Z,22.98
2022-11-09T22:17:21.491Z,21.95
2022-11-09T22:20:06.838Z,23.25
2022-11-09T22:22:34.373Z,24.20
2022-11-09T22:25:01.266Z,22.20
2022-11-09T22:27:30.478Z,24.52
2022-11-09T22:29:57.374Z,19.77
2022-11-09T22:32:24.283Z,21.40
2022-11-09T22:34:51.171Z,23.67
2022-11-09T22:37:18.174Z,23.67
2022-11-09T22:39:47.491Z,24.48
2022-11-09T22:42:14.636Z,23.25
2022-11-09T22:44:41.618Z,23.42
2022-11-09T22:47:08.568Z,23.08
2022-11-09T22:49:36.863Z,23.08
2022-11-09T22:52:05.087Z,24.45
2022-11-09T22:54:32.036Z,22.13
2022-11-09T22:56:58.908Z,22.10
2022-11-09T22:59:26.075Z,24.05
2022-11-09T23:01:53.017Z,24.20
2022-11-09T23:04:19.871Z,23.63
2022-11-09T23:06:46.803Z,23.35
2022-11-09T23:09:13.804Z,23.42
2022-11-09T23:11:40.721Z,19.50
2022-11-09T23:14:07.648Z,23.05
2022-11-09T23:16:34.496Z,23.33
2022-11-09T23:19:01.379Z,23.13
2022-11-09T23:21:32.048Z,22.95
2022-11-09T23:24:03.086Z,23.52
2022-11-09T23:26:30.877Z,23.80
2022-11-09T23:28:58.090Z,23.52
2022-11-09T23:31:25.954Z,23.88
2022-11-09T23:33:57.512Z,25.23
2022-11-09T23:36:26.174Z,22.85
2022-11-09T23:38:53.598Z,24.10
2022-11-09T23:41:20.868Z,21.95
2022-11-09T23:43:49.984Z,23.27
2022-11-09T23:46:17.946Z,22.83
2022-11-09T23:48:45.422Z,21.13
2022-11-09T23:51:12.600Z,23.15
2022-11-09T23:53:39.914Z,24.10
2022-11-09T23:56:09.738Z,23.05
2022-11-09T23:58:36.950Z,23.30
